createdAt,value
2023-04-08T00:05:02.764Z,16.33
2023-04-08T00:10:19.262Z,16.75
2023-04-08T00:15:35.146Z,25.10
2023-04-08T00:20:51.507Z,18.10
2023-04-08T00:26:07.375Z,15.05
2023-04-08T00:31:23.488Z,22.13
2023-04-08T00:36:40.586Z,16.65
2023-04-08T00:41:57.766Z,17.00
2023-04-08T00:47:15.043Z,16.52
2023-04-08T00:52:30.808Z,17.63
2023-04-08T00:57:47.298Z,10.25
2023-04-08T01:03:19.009Z,16.92
2023-04-08T01:08:36.894Z,9.93
2023-04-08T01:13:56.390Z,12.55
2023-04-08T01:19:24.584Z,13.63
2023-04-08T01:24:44.878Z,10.45
2023-04-08T01:30:03.516Z,10.50
2023-04-08T01:35:19.908Z,10.88
2023-04-08T01:40:38.111Z,17.17
2023-04-08T01:45:58.601Z,12.05
2023-04-08T01:51:16.892Z,15.48
2023-04-08T01:56:39.545Z,11.00
2023-04-08T02:01:55.839Z,16.80
2023-04-08T02:07:12.520Z,12.45
2023-04-08T02:12:29.002Z,13.55
2023-04-08T02:17:51.381Z,13.40
2023-04-08T02:23:23.031Z,15.02
2023-04-08T02:28:42.177Z,19.08
2023-04-08T02:33:59.443Z,13.25
2023-04-08T02:39:15.077Z,12.00
2023-04-08T02:44:30.904Z,10.82
2023-04-08T02:49:46.751Z,15.63
2023-04-08T02:55:03.275Z,10.13
2023-04-08T03:00:19.217Z,16.08
2023-04-08T03:05:35.387Z,13.45
2023-04-08T03:10:51.924Z,17.80
2023-04-08T03:16:08.092Z,16.05
2023-04-08T03:21:24.804Z,13.18
2023-04-08T03:26:40.529Z,13.15
2023-04-08T03:31:56.773Z,13.15
2023-04-08T03:37:12.403Z,11.82
2023-04-08T03:42:27.887Z,13.32
2023-04-08T03:47:43.365Z,11.50
2023-04-08T03:52:59.408Z,9.48
2023-04-08T03:58:15.952Z,12.60
2023-04-08T04:03:32.187Z,14.85
2023-04-08T04:08:48.390Z,17.00
2023-04-08T04:14:04.651Z,12.45
2023-04-08T04:19:20.510Z,17.00
2023-04-08T04:24:36.417Z,12.20
2023-04-08T04:29:52.350Z,11.85
2023-04-08T04:35:09.513Z,13.45
2023-04-08T04:40:25.192Z,15.55
2023-04-08T04:45:41.016Z,11.73
2023-04-08T04:50:58.088Z,15.80
2023-04-08T04:56:14.036Z,13.30
2023-04-08T05:01:30.882Z,10.35
2023-04-08T05:06:46.684Z,13.73
2023-04-08T05:12:02.468Z,11.38
2023-04-08T05:17:17.874Z,12.52
2023-04-08T05:22:34.611Z,17.65
2023-04-08T05:27:50.248Z,18.65
2023-04-08T05:33:06.297Z,13.65
2023-04-08T05:38:22.141Z,15.25
2023-04-08T05:43:38.266Z,17.98
2023-04-08T05:48:54.322Z,14.88
2023-04-08T05:54:10.552Z,19.27
2023-04-08T05:59:26.326Z,10.38
2023-04-08T06:04:41.889Z,16.67
2023-04-08T06:09:57.743Z,19.48
2023-04-08T06:15:13.556Z,14.98
2023-04-08T06:20:29.577Z,18.02
2023-04-08T06:25:45.426Z,15.45
2023-04-08T06:31:01.674Z,15.20
2023-04-08T06:36:17.502Z,18.55
2023-04-08T06:41:33.684Z,13.80
2023-04-08T06:46:49.286Z,11.45
2023-04-08T06:52:06.889Z,16.48
2023-04-08T06:57:22.413Z,13.50
2023-04-08T07:02:38.958Z,12.52
2023-04-08T07:07:55.211Z,14.30
2023-04-08T07:13:11.612Z,14.60
2023-04-08T07:18:27.650Z,20.40
2023-04-08T07:23:43.305Z,17.27
2023-04-08T07:28:59.374Z,17.63
2023-04-08T07:34:15.135Z,17.83
2023-04-08T07:39:31.265Z,16.88
2023-04-08T07:44:47.044Z,15.15
2023-04-08T07:50:04.083Z,16.48
2023-04-08T07:55:19.853Z,16.92
2023-04-08T08:00:35.717Z,18.42
2023-04-08T08:05:51.310Z,19.00
2023-04-08T08:11:07.238Z,16.88
2023-04-08T08:16:22.627Z,22.20
2023-04-08T08:21:39.790Z,25.02
2023-04-08T08:26:55.917Z,20.35
2023-04-08T08:32:11.584Z,18.50
2023-04-08T08:37:28.068Z,15.25
2023-04-08T08:42:52.519Z,17.17
2023-04-08T08:48:09.453Z,17.30
2023-04-08T08:53:35.082Z,17.00
2023-04-08T08:58:51.797Z,18.65
2023-04-08T09:04:23.194Z,21.63
2023-04-08T09:09:52.403Z,18.90
2023-04-08T09:15:10.276Z,18.70
2023-04-08T09:20:26.307Z,14.85
2023-04-08T09:25:42.169Z,19.45
2023-04-08T09:30:58.910Z,16.08
2023-04-08T09:36:16.604Z,18.40
2023-04-08T09:41:35.683Z,20.20
2023-04-08T09:46:51.635Z,20.50
2023-04-08T09:52:08.289Z,15.13
2023-04-08T09:57:35.950Z,17.27
2023-04-08T10:03:13.699Z,18.98
2023-04-08T10:08:31.720Z,18.05
2023-04-08T10:13:48.473Z,17.00
2023-04-08T10:19:50.640Z,17.95
2023-04-08T10:25:18.416Z,19.38
2023-04-08T10:30:34.219Z,18.45
2023-04-08T10:35:55.114Z,15.25
2023-04-08T10:41:14.563Z,17.20
2023-04-08T10:46:38.418Z,21.05
2023-04-08T10:51:54.020Z,17.67
2023-04-08T10:57:10.145Z,13.82
2023-04-08T11:02:33.893Z,16.92
2023-04-08T11:07:49.937Z,19.30
2023-04-08T11:13:09.148Z,21.17
2023-04-08T11:18:26.499Z,18.85
2023-04-08T11:23:43.247Z,18.25
2023-04-08T11:29:01.266Z,19.20
2023-04-08T11:34:23.609Z,16.70
2023-04-08T11:39:46.666Z,25.98
2023-04-08T11:45:02.502Z,15.52
2023-04-08T11:50:26.165Z,20.00
2023-04-08T11:55:41.984Z,16.98
2023-04-08T12:00:57.958Z,19.63
2023-04-08T12:06:13.371Z,17.38
2023-04-08T12:11:29.221Z,23.40
2023-04-08T12:16:45.080Z,18.08
2023-04-08T12:22:01.555Z,15.13
2023-04-08T12:27:17.412Z,17.55
2023-04-08T12:32:33.741Z,17.92
2023-04-08T12:37:49.185Z,25.35
2023-04-08T12:43:05.106Z,17.73
2023-04-08T12:48:20.919Z,14.63
2023-04-08T12:53:36.584Z,15.52
2023-04-08T12:58:52.418Z,15.25
2023-04-08T13:04:08.187Z,15.48
2023-04-08T13:09:24.027Z,15.80
2023-04-08T13:14:39.597Z,19.42
2023-04-08T13:19:55.696Z,17.50
2023-04-08T13:25:11.682Z,18.80
2023-04-08T13:30:27.459Z,18.02
2023-04-08T13:35:44.184Z,18.23
2023-04-08T13:41:00.180Z,16.45
2023-04-08T13:46:16.600Z,17.33
2023-04-08T13:51:32.556Z,16.80
2023-04-08T13:56:48.370Z,17.67
2023-04-08T14:02:04.540Z,19.80
2023-04-08T14:07:20.567Z,13.65
2023-04-08T14:12:36.552Z,14.63
2023-04-08T14:17:52.493Z,14.50
2023-04-08T14:23:08.634Z,23.90
2023-04-08T14:28:24.493Z,21.65
2023-04-08T14:33:41.032Z,14.75
2023-04-08T14:38:56.829Z,14.77
2023-04-08T14:44:12.717Z,15.88
2023-04-08T14:49:28.213Z,17.73
2023-04-08T14:54:45.333Z,21.17
2023-04-08T15:00:01.016Z,12.25
2023-04-08T15:05:16.953Z,15.57
2023-04-08T15:10:33.093Z,13.63
2023-04-08T15:15:48.938Z,13.50
2023-04-08T15:21:04.940Z,12.38
2023-04-08T15:26:22.034Z,14.10
2023-04-08T15:31:38.128Z,18.05
2023-04-08T15:36:53.704Z,12.77
2023-04-08T15:42:09.781Z,13.82
2023-04-08T15:47:25.879Z,12.80
2023-04-08T15:52:42.206Z,12.02
2023-04-08T15:57:58.636Z,16.58
2023-04-08T16:03:14.997Z,16.05
2023-04-08T16:08:32.608Z,13.63
2023-04-08T16:13:48.318Z,9.50
2023-04-08T16:19:04.816Z,8.10
2023-04-08T16:24:21.053Z,9.40
2023-04-08T16:29:36.971Z,7.07
2023-04-08T16:34:52.798Z,5.20
2023-04-08T16:40:10.500Z,5.15
2023-04-08T16:45:29.852Z,6.50
2023-04-08T16:50:46.250Z,5.47
2023-04-08T16:56:02.767Z,7.72
2023-04-08T17:01:18.327Z,12.02
2023-04-08T17:06:37.796Z,12.27
2023-04-08T17:11:56.033Z,8.45
2023-04-08T17:17:11.760Z,6.80
2023-04-08T17:22:27.812Z,10.40
2023-04-08T17:27:43.584Z,6.97
2023-04-08T17:32:59.099Z,8.48
2023-04-08T17:38:15.080Z,6.22
2023-04-08T17:43:30.516Z,10.45
2023-04-08T17:48:46.684Z,6.97
2023-04-08T17:54:02.452Z,7.82
2023-04-08T17:59:18.602Z,6.05
2023-04-08T18:04:34.611Z,21.30
2023-04-08T18:09:50.902Z,20.75
2023-04-08T18:15:07.230Z,11.82
2023-04-08T18:20:23.219Z,14.23
2023-04-08T18:25:41.253Z,13.85
2023-04-08T18:30:57.190Z,13.27
2023-04-08T18:36:14.110Z,13.77
2023-04-08T18:41:29.937Z,18.17
2023-04-08T18:46:46.075Z,10.57
2023-04-08T18:52:02.908Z,19.20
2023-04-08T18:57:19.285Z,22.05
2023-04-08T19:02:36.096Z,39.67
2023-04-08T19:07:53.181Z,39.88
2023-04-08T19:13:09.110Z,32.63
2023-04-08T19:18:25.159Z,17.17
2023-04-08T19:23:41.717Z,16.30
2023-04-08T19:28:57.616Z,19.38
2023-04-08T19:34:13.456Z,22.85
2023-04-08T19:39:29.511Z,21.00
2023-04-08T19:44:47.599Z,15.05
2023-04-08T19:50:03.701Z,12.55
2023-04-08T19:55:19.808Z,18.98
2023-04-08T20:00:38.855Z,19.58
2023-04-08T20:05:54.736Z,19.92
2023-04-08T20:11:11.451Z,20.42
2023-04-08T20:16:27.876Z,20.58
2023-04-08T20:21:44.756Z,18.45
2023-04-08T20:27:00.517Z,20.83
2023-04-08T20:32:16.336Z,14.13
2023-04-08T20:37:33.732Z,17.50
2023-04-08T20:42:49.839Z,16.50
2023-04-08T20:48:06.094Z,17.15
2023-04-08T20:53:23.823Z,12.23
2023-04-08T20:58:39.740Z,18.90
2023-04-08T21:03:57.398Z,16.92
2023-04-08T21:09:15.183Z,17.77
2023-04-08T21:14:34.924Z,18.08
2023-04-08T21:19:50.967Z,15.23
2023-04-08T21:25:07.458Z,15.68
2023-04-08T21:30:23.393Z,17.33
2023-04-08T21:35:39.539Z,21.27
2023-04-08T21:40:55.928Z,18.02
2023-04-08T21:46:11.969Z,22.90
2023-04-08T21:51:27.708Z,32.53
2023-04-08T21:56:43.870Z,27.25
2023-04-08T22:01:59.922Z,31.77
2023-04-08T22:07:15.972Z,32.42
2023-04-08T22:12:31.951Z,39.30
2023-04-08T22:17:47.679Z,35.53
2023-04-08T22:23:03.696Z,31.70
2023-04-08T22:28:19.785Z,29.60
2023-04-08T22:33:35.751Z,32.60
2023-04-08T22:38:51.735Z,28.98
2023-04-08T22:44:08.301Z,27.88
2023-04-08T22:49:24.371Z,25.13
2023-04-08T22:54:40.464Z,23.17
2023-04-08T22:59:56.344Z,20.98
2023-04-08T23:05:12.291Z,23.60
2023-04-08T23:10:28.349Z,22.13
2023-04-08T23:15:44.726Z,22.60
2023-04-08T23:21:00.338Z,26.10
2023-04-08T23:26:21.084Z,21.45
2023-04-08T23:31:36.966Z,20.63
2023-04-08T23:36:52.870Z,21.90
2023-04-08T23:42:08.706Z,20.98
2023-04-08T23:47:24.740Z,20.45
2023-04-08T23:52:40.852Z,16.27
2023-04-08T23:57:56.947Z,19.90
